sensor_id;sensor_type;location;lat;lon;timestamp;pressure;altitude;pressure_sealevel;temperature;humidity
45525;BME280;31437;58.350;13.828;2023-03-14T00:01:29;98199.16;;;3.87;100.00
45525;BME280;31437;58.350;13.828;2023-03-14T00:03:54;98222.34;;;3.90;100.00
45525;BME280;31437;58.350;13.828;2023-03-14T00:06:19;98221.25;;;3.94;100.00
45525;BME280;31437;58.350;13.828;2023-03-14T00:08:46;98228.28;;;3.92;100.00
45525;BME280;31437;58.350;13.828;2023-03-14T00:11:13;98207.41;;;3.94;100.00
45525;BME280;31437;58.350;13.828;2023-03-14T00:13:39;98206.69;;;3.92;100.00
45525;BME280;31437;58.350;13.828;2023-03-14T00:16:04;98213.72;;;3.90;100.00
45525;BME280;31437;58.350;13.828;2023-03-14T00:18:30;98217.97;;;3.91;100.00
45525;BME280;31437;58.350;13.828;2023-03-14T00:20:59;98186.66;;;3.94;100.00
45525;BME280;31437;58.350;13.828;2023-03-14T00:23:25;98200.50;;;3.94;100.00
45525;BME280;31437;58.350;13.828;2023-03-14T00:25:51;98184.81;;;3.96;100.00
45525;BME280;31437;58.350;13.828;2023-03-14T00:28:17;98172.22;;;3.90;100.00
45525;BME280;31437;58.350;13.828;2023-03-14T00:30:42;98144.81;;;3.85;100.00
45525;BME280;31437;58.350;13.828;2023-03-14T00:33:08;98152.09;;;3.79;100.00
45525;BME280;31437;58.350;13.828;2023-03-14T00:35:33;98122.84;;;3.77;100.00
45525;BME280;31437;58.350;13.828;2023-03-14T00:37:58;98134.03;;;3.77;100.00
45525;BME280;31437;58.350;13.828;2023-03-14T00:40:23;98131.44;;;3.77;100.00
45525;BME280;31437;58.350;13.828;2023-03-14T00:42:49;98103.09;;;3.74;100.00
45525;BME280;31437;58.350;13.828;2023-03-14T00:45:14;98096.34;;;3.72;100.00
45525;BME280;31437;58.350;13.828;2023-03-14T00:47:39;98066.59;;;3.77;100.00
45525;BME280;31437;58.350;13.828;2023-03-14T00:50:05;98043.28;;;3.77;100.00
45525;BME280;31437;58.350;13.828;2023-03-14T00:52:30;98049.28;;;3.78;100.00
45525;BME280;31437;58.350;13.828;2023-03-14T00:54:55;98030.38;;;3.76;100.00
45525;BME280;31437;58.350;13.828;2023-03-14T00:57:21;98013.25;;;3.73;100.00
45525;BME280;31437;58.350;13.828;2023-03-14T00:59:46;97987.78;;;3.66;100.00
45525;BME280;31437;58.350;13.828;2023-03-14T01:02:11;97979.56;;;3.59;100.00
45525;BME280;31437;58.350;13.828;2023-03-14T01:04:36;97917.69;;;3.53;100.00
45525;BME280;31437;58.350;13.828;2023-03-14T01:07:02;97882.34;;;3.52;100.00
45525;BME280;31437;58.350;13.828;2023-03-14T01:09:28;97871.13;;;3.51;100.00
45525;BME280;31437;58.350;13.828;2023-03-14T01:11:53;97855.59;;;3.51;100.00
45525;BME280;31437;58.350;13.828;2023-03-14T01:14:18;97847.81;;;3.51;100.00
45525;BME280;31437;58.350;13.828;2023-03-14T01:16:44;97841.50;;;3.55;100.00
45525;BME280;31437;58.350;13.828;2023-03-14T01:19:09;97827.81;;;3.53;100.00
45525;BME280;31437;58.350;13.828;2023-03-14T01:21:34;97823.72;;;3.49;100.00
45525;BME280;31437;58.350;13.828;2023-03-14T01:24:00;97801.63;;;3.44;100.00
45525;BME280;31437;58.350;13.828;2023-03-14T01:26:28;97788.66;;;3.44;100.00
45525;BME280;31437;58.350;13.828;2023-03-14T01:28:54;97754.69;;;3.48;100.00
45525;BME280;31437;58.350;13.828;2023-03-14T01:31:20;97745.16;;;3.49;100.00
45525;BME280;31437;58.350;13.828;2023-03-14T01:33:45;97727.19;;;3.46;100.00
45525;BME280;31437;58.350;13.828;2023-03-14T01:36:11;97691.84;;;3.45;100.00
45525;BME280;31437;58.350;13.828;2023-03-14T01:38:37;97660.84;;;3.43;100.00
45525;BME280;31437;58.350;13.828;2023-03-14T01:41:03;97656.88;;;3.37;100.00
45525;BME280;31437;58.350;13.828;2023-03-14T01:43:29;97641.13;;;3.40;100.00
45525;BME280;31437;58.350;13.828;2023-03-14T01:48:31;97622.28;;;3.38;100.00
45525;BME280;31437;58.350;13.828;2023-03-14T01:50:58;97610.22;;;3.37;100.00
45525;BME280;31437;58.350;13.828;2023-03-14T01:53:25;97589.09;;;3.31;100.00
45525;BME280;31437;58.350;13.828;2023-03-14T01:55:52;97598.81;;;3.27;100.00
45525;BME280;31437;58.350;13.828;2023-03-14T01:58:18;97603.56;;;3.21;100.00
45525;BME280;31437;58.350;13.828;2023-03-14T02:00:45;97585.00;;;3.14;100.00
45525;BME280;31437;58.350;13.828;2023-03-14T02:03:11;97590.28;;;3.12;100.00
45525;BME280;31437;58.350;13.828;2023-03-14T02:05:40;97585.19;;;3.11;100.00
45525;BME280;31437;58.350;13.828;2023-03-14T02:08:17;97575.97;;;3.07;100.00
45525;BME280;31437;58.350;13.828;2023-03-14T02:10:44;97559.63;;;3.06;100.00
45525;BME280;31437;58.350;13.828;2023-03-14T02:13:10;97557.94;;;3.05;100.00
45525;BME280;31437;58.350;13.828;2023-03-14T02:15:36;97541.56;;;3.05;100.00
45525;BME280;31437;58.350;13.828;2023-03-14T02:18:03;97537.53;;;3.01;100.00
45525;BME280;31437;58.350;13.828;2023-03-14T02:23:13;97533.25;;;3.00;100.00
45525;BME280;31437;58.350;13.828;2023-03-14T02:28:24;97536.66;;;2.87;100.00
45525;BME280;31437;58.350;13.828;2023-03-14T02:30:50;97534.25;;;2.84;100.00
45525;BME280;31437;58.350;13.828;2023-03-14T02:33:16;97527.00;;;2.77;100.00
45525;BME280;31437;58.350;13.828;2023-03-14T02:35:43;97544.28;;;2.76;100.00
45525;BME280;31437;58.350;13.828;2023-03-14T02:40:35;97535.81;;;2.74;100.00
45525;BME280;31437;58.350;13.828;2023-03-14T02:43:00;97536.81;;;2.71;100.00
45525;BME280;31437;58.350;13.828;2023-03-14T02:45:30;97524.78;;;2.70;100.00
45525;BME280;31437;58.350;13.828;2023-03-14T02:47:59;97528.44;;;2.68;100.00
45525;BME280;31437;58.350;13.828;2023-03-14T02:50:28;97532.13;;;2.64;100.00
45525;BME280;31437;58.350;13.828;2023-03-14T02:52:56;97519.19;;;2.64;100.00
45525;BME280;31437;58.350;13.828;2023-03-14T02:55:22;97523.72;;;2.60;100.00
45525;BME280;31437;58.350;13.828;2023-03-14T02:57:47;97522.09;;;2.59;100.00
45525;BME280;31437;58.350;13.828;2023-03-14T03:00:13;97528.28;;;2.57;100.00
45525;BME280;31437;58.350;13.828;2023-03-14T03:02:38;97526.09;;;2.50;100.00
45525;BME280;31437;58.350;13.828;2023-03-14T03:05:04;97505.63;;;2.33;100.00
45525;BME280;31437;58.350;13.828;2023-03-14T03:07:29;97524.09;;;2.41;100.00
45525;BME280;31437;58.350;13.828;2023-03-14T03:09:54;97517.34;;;2.39;100.00
45525;BME280;31437;58.350;13.828;2023-03-14T03:12:19;97521.78;;;2.37;100.00
45525;BME280;31437;58.350;13.828;2023-03-14T03:14:45;97523.53;;;2.36;100.00
45525;BME280;31437;58.350;13.828;2023-03-14T03:17:10;97521.03;;;2.35;100.00
45525;BME280;31437;58.350;13.828;2023-03-14T03:19:35;97514.41;;;2.31;100.00
45525;BME280;31437;58.350;13.828;2023-03-14T03:22:01;97514.69;;;2.26;100.00
45525;BME280;31437;58.350;13.828;2023-03-14T03:24:26;97510.00;;;2.18;100.00
45525;BME280;31437;58.350;13.828;2023-03-14T03:26:52;97505.03;;;2.15;100.00
45525;BME280;31437;58.350;13.828;2023-03-14T03:29:18;97507.69;;;2.14;100.00
45525;BME280;31437;58.350;13.828;2023-03-14T03:31:43;97498.56;;;2.08;100.00
45525;BME280;31437;58.350;13.828;2023-03-14T04:00:02;97502.56;;;1.85;100.00
45525;BME280;31437;58.350;13.828;2023-03-14T04:02:29;97505.91;;;1.87;100.00
45525;BME280;31437;58.350;13.828;2023-03-14T04:04:54;97502.38;;;1.88;100.00
45525;BME280;31437;58.350;13.828;2023-03-14T04:07:19;97503.31;;;1.87;100.00
45525;BME280;31437;58.350;13.828;2023-03-14T04:09:44;97496.50;;;1.86;100.00
45525;BME280;31437;58.350;13.828;2023-03-14T04:12:10;97506.00;;;1.86;100.00
45525;BME280;31437;58.350;13.828;2023-03-14T04:14:36;97496.56;;;1.85;100.00
45525;BME280;31437;58.350;13.828;2023-03-14T04:17:01;97498.31;;;1.84;100.00
45525;BME280;31437;58.350;13.828;2023-03-14T04:19:26;97503.59;;;1.83;100.00
45525;BME280;31437;58.350;13.828;2023-03-14T04:21:51;97495.00;;;1.82;100.00
45525;BME280;31437;58.350;13.828;2023-03-14T04:24:17;97482.25;;;1.79;100.00
45525;BME280;31437;58.350;13.828;2023-03-14T04:26:42;97472.84;;;1.78;100.00
45525;BME280;31437;58.350;13.828;2023-03-14T04:29:07;97485.16;;;1.74;100.00
45525;BME280;31437;58.350;13.828;2023-03-14T04:31:33;97481.81;;;1.72;100.00
45525;BME280;31437;58.350;13.828;2023-03-14T04:33:58;97472.59;;;1.68;100.00
45525;BME280;31437;58.350;13.828;2023-03-14T04:36:23;97468.44;;;1.66;100.00
45525;BME280;31437;58.350;13.828;2023-03-14T04:38:48;97462.44;;;1.65;100.00
45525;BME280;31437;58.350;13.828;2023-03-14T04:41:14;97469.34;;;1.65;100.00
45525;BME280;31437;58.350;13.828;2023-03-14T04:43:39;97469.47;;;1.63;100.00
45525;BME280;31437;58.350;13.828;2023-03-14T04:46:04;97466.31;;;1.58;100.00
45525;BME280;31437;58.350;13.828;2023-03-14T04:48:30;97475.09;;;1.55;100.00
45525;BME280;31437;58.350;13.828;2023-03-14T04:50:55;97481.09;;;1.56;100.00
45525;BME280;31437;58.350;13.828;2023-03-14T04:53:21;97478.59;;;1.54;100.00
45525;BME280;31437;58.350;13.828;2023-03-14T04:55:50;97488.84;;;1.56;100.00
45525;BME280;31437;58.350;13.828;2023-03-14T04:58:15;97486.34;;;1.54;100.00
45525;BME280;31437;58.350;13.828;2023-03-14T05:00:40;97488.94;;;1.54;100.00
45525;BME280;31437;58.350;13.828;2023-03-14T05:03:06;97490.69;;;1.54;100.00
45525;BME280;31437;58.350;13.828;2023-03-14T05:05:31;97496.75;;;1.53;100.00
45525;BME280;31437;58.350;13.828;2023-03-14T05:07:56;97497.63;;;1.53;100.00
45525;BME280;31437;58.350;13.828;2023-03-14T05:10:22;97495.22;;;1.50;100.00
45525;BME280;31437;58.350;13.828;2023-03-14T05:12:47;97510.91;;;1.47;100.00
45525;BME280;31437;58.350;13.828;2023-03-14T05:15:12;97500.66;;;1.46;100.00
45525;BME280;31437;58.350;13.828;2023-03-14T05:17:38;97497.06;;;1.48;100.00
45525;BME280;31437;58.350;13.828;2023-03-14T05:20:06;97516.72;;;1.51;100.00
45525;BME280;31437;58.350;13.828;2023-03-14T05:22:38;97505.56;;;1.50;100.00
45525;BME280;31437;58.350;13.828;2023-03-14T05:25:03;97522.88;;;1.48;100.00
45525;BME280;31437;58.350;13.828;2023-03-14T05:27:29;97521.06;;;1.50;100.00
45525;BME280;31437;58.350;13.828;2023-03-14T05:29:54;97510.81;;;1.49;100.00
45525;BME280;31437;58.350;13.828;2023-03-14T05:32:19;97522.78;;;1.50;100.00
45525;BME280;31437;58.350;13.828;2023-03-14T05:34:45;97510.72;;;1.50;100.00
45525;BME280;31437;58.350;13.828;2023-03-14T05:37:10;97516.72;;;1.51;100.00
45525;BME280;31437;58.350;13.828;2023-03-14T05:39:35;97517.53;;;1.51;100.00
45525;BME280;31437;58.350;13.828;2023-03-14T05:42:00;97526.22;;;1.50;100.00
45525;BME280;31437;58.350;13.828;2023-03-14T05:44:26;97530.47;;;1.51;100.00
45525;BME280;31437;58.350;13.828;2023-03-14T05:46:51;97539.88;;;1.52;100.00
45525;BME280;31437;58.350;13.828;2023-03-14T05:49:16;97546.78;;;1.52;100.00
45525;BME280;31437;58.350;13.828;2023-03-14T05:51:42;97542.38;;;1.54;100.00
45525;BME280;31437;58.350;13.828;2023-03-14T05:54:07;97544.13;;;1.53;100.00
45525;BME280;31437;58.350;13.828;2023-03-14T05:56:32;97541.53;;;1.53;100.00
45525;BME280;31437;58.350;13.828;2023-03-14T05:58:57;97554.47;;;1.53;100.00
45525;BME280;31437;58.350;13.828;2023-03-14T06:01:23;97550.94;;;1.54;100.00
45525;BME280;31437;58.350;13.828;2023-03-14T06:03:48;97564.81;;;1.53;100.00
45525;BME280;31437;58.350;13.828;2023-03-14T06:06:13;97570.88;;;1.52;100.00
45525;BME280;31437;58.350;13.828;2023-03-14T06:08:39;97578.63;;;1.52;100.00
45525;BME280;31437;58.350;13.828;2023-03-14T06:11:04;97575.03;;;1.55;100.00
45525;BME280;31437;58.350;13.828;2023-03-14T06:13:29;97579.38;;;1.54;100.00
45525;BME280;31437;58.350;13.828;2023-03-14T06:15:55;97576.78;;;1.54;100.00
45525;BME280;31437;58.350;13.828;2023-03-14T06:18:20;97578.44;;;1.55;100.00
45525;BME280;31437;58.350;13.828;2023-03-14T06:20:45;97581.03;;;1.55;100.00
45525;BME280;31437;58.350;13.828;2023-03-14T06:23:10;97583.59;;;1.55;100.00
45525;BME280;31437;58.350;13.828;2023-03-14T06:25:36;97593.94;;;1.55;100.00
45525;BME280;31437;58.350;13.828;2023-03-14T06:28:01;97593.75;;;1.58;100.00
45525;BME280;31437;58.350;13.828;2023-03-14T06:30:26;97580.75;;;1.46;100.00
45525;BME280;31437;58.350;13.828;2023-03-14T06:32:52;97616.56;;;1.66;100.00
45525;BME280;31437;58.350;13.828;2023-03-14T06:35:17;97612.06;;;1.70;100.00
45525;BME280;31437;58.350;13.828;2023-03-14T06:37:43;97616.97;;;1.74;100.00
45525;BME280;31437;58.350;13.828;2023-03-14T06:40:09;97621.13;;;1.77;100.00
45525;BME280;31437;58.350;13.828;2023-03-14T06:42:35;97622.69;;;1.79;100.00
45525;BME280;31437;58.350;13.828;2023-03-14T06:45:00;97625.19;;;1.81;100.00
45525;BME280;31437;58.350;13.828;2023-03-14T06:47:25;97629.53;;;1.80;100.00
45525;BME280;31437;58.350;13.828;2023-03-14T06:49:51;97626.00;;;1.81;100.00
45525;BME280;31437;58.350;13.828;2023-03-14T06:52:16;97631.28;;;1.80;100.00
45525;BME280;31437;58.350;13.828;2023-03-14T06:54:41;97631.19;;;1.81;100.00
45525;BME280;31437;58.350;13.828;2023-03-14T06:57:07;97629.41;;;1.82;100.00
45525;BME280;31437;58.350;13.828;2023-03-14T06:59:32;97636.28;;;1.83;100.00
45525;BME280;31437;58.350;13.828;2023-03-14T07:01:57;97639.69;;;1.84;100.00
45525;BME280;31437;58.350;13.828;2023-03-14T07:04:23;97643.19;;;1.83;100.00
45525;BME280;31437;58.350;13.828;2023-03-14T07:06:48;97639.69;;;1.84;100.00
45525;BME280;31437;58.350;13.828;2023-03-14T07:09:14;97645.78;;;1.83;100.00
45525;BME280;31437;58.350;13.828;2023-03-14T07:11:39;97647.50;;;1.82;100.00
45525;BME280;31437;58.350;13.828;2023-03-14T07:14:04;97651.97;;;1.80;100.00
45525;BME280;31437;58.350;13.828;2023-03-14T07:16:30;97658.78;;;1.81;100.00
45525;BME280;31437;58.350;13.828;2023-03-14T07:18:58;97661.38;;;1.81;100.00
45525;BME280;31437;58.350;13.828;2023-03-14T07:21:23;97651.78;;;1.83;100.00
45525;BME280;31437;58.350;13.828;2023-03-14T07:23:50;97658.59;;;1.84;100.00
45525;BME280;31437;58.350;13.828;2023-03-14T07:26:15;97654.91;;;1.88;100.00
45525;BME280;31437;58.350;13.828;2023-03-14T07:28:41;97658.06;;;1.93;100.00
45525;BME280;31437;58.350;13.828;2023-03-14T07:31:06;97655.09;;;1.99;100.00
45525;BME280;31437;58.350;13.828;2023-03-14T07:33:31;97654.75;;;2.05;100.00
45525;BME280;31437;58.350;13.828;2023-03-14T07:35:57;97664.00;;;2.10;100.00
45525;BME280;31437;58.350;13.828;2023-03-14T07:38:22;97659.53;;;2.12;100.00
45525;BME280;31437;58.350;13.828;2023-03-14T07:40:47;97667.88;;;2.17;100.00
45525;BME280;31437;58.350;13.828;2023-03-14T07:43:12;97660.03;;;2.18;100.00
45525;BME280;31437;58.350;13.828;2023-03-14T07:45:38;97664.09;;;2.22;100.00
45525;BME280;31437;58.350;13.828;2023-03-14T07:48:03;97665.47;;;2.28;100.00
45525;BME280;31437;58.350;13.828;2023-03-14T07:50:28;97662.06;;;2.27;100.00
45525;BME280;31437;58.350;13.828;2023-03-14T07:52:55;97660.94;;;2.32;100.00
45525;BME280;31437;58.350;13.828;2023-03-14T07:55:20;97659.16;;;2.32;100.00
45525;BME280;31437;58.350;13.828;2023-03-14T07:57:46;97668.31;;;2.38;100.00
45525;BME280;31437;58.350;13.828;2023-03-14T08:00:11;97668.63;;;2.47;100.00
45525;BME280;31437;58.350;13.828;2023-03-14T08:02:36;97671.19;;;2.62;100.00
45525;BME280;31437;58.350;13.828;2023-03-14T08:05:02;97668.75;;;2.73;100.00
45525;BME280;31437;58.350;13.828;2023-03-14T08:07:28;97671.69;;;2.81;100.00
45525;BME280;31437;58.350;13.828;2023-03-14T08:09:54;97673.34;;;2.82;100.00
45525;BME280;31437;58.350;13.828;2023-03-14T08:12:19;97660.41;;;2.82;100.00
45525;BME280;31437;58.350;13.828;2023-03-14T08:14:44;97663.28;;;2.78;100.00
45525;BME280;31437;58.350;13.828;2023-03-14T08:17:10;97656.53;;;2.75;100.00
45525;BME280;31437;58.350;13.828;2023-03-14T08:19:35;97659.22;;;2.73;100.00
45525;BME280;31437;58.350;13.828;2023-03-14T08:22:00;97655.34;;;2.66;100.00
45525;BME280;31437;58.350;13.828;2023-03-14T08:24:25;97652.75;;;2.66;100.00
45525;BME280;31437;58.350;13.828;2023-03-14T08:26:51;97648.41;;;2.67;100.00
45525;BME280;31437;58.350;13.828;2023-03-14T08:29:17;97646.56;;;2.69;100.00
45525;BME280;31437;58.350;13.828;2023-03-14T08:31:42;97638.50;;;2.73;100.00
45525;BME280;31437;58.350;13.828;2023-03-14T08:34:07;97639.34;;;2.74;100.00
45525;BME280;31437;58.350;13.828;2023-03-14T08:36:33;97631.28;;;2.79;100.00
45525;BME280;31437;58.350;13.828;2023-03-14T08:38:58;97625.09;;;2.81;100.00
45525;BME280;31437;58.350;13.828;2023-03-14T08:41:23;97625.81;;;2.83;100.00
45525;BME280;31437;58.350;13.828;2023-03-14T08:43:49;97628.03;;;2.89;100.00
45525;BME280;31437;58.350;13.828;2023-03-14T08:46:15;97630.56;;;3.04;100.00
45525;BME280;31437;58.350;13.828;2023-03-14T08:48:40;97640.13;;;3.16;100.00
45525;BME280;31437;58.350;13.828;2023-03-14T08:51:06;97639.47;;;3.27;100.00
45525;BME280;31437;58.350;13.828;2023-03-14T08:53:32;97641.25;;;3.39;100.00
45525;BME280;31437;58.350;13.828;2023-03-14T08:55:57;97649.34;;;3.47;100.00
45525;BME280;31437;58.350;13.828;2023-03-14T08:58:23;97644.88;;;3.49;100.00
45525;BME280;31437;58.350;13.828;2023-03-14T09:00:49;97638.03;;;3.48;100.00
45525;BME280;31437;58.350;13.828;2023-03-14T09:03:15;97630.34;;;3.47;100.00
45525;BME280;31437;58.350;13.828;2023-03-14T09:05:41;97618.63;;;3.41;100.00
45525;BME280;31437;58.350;13.828;2023-03-14T09:08:06;97605.78;;;3.39;100.00
45525;BME280;31437;58.350;13.828;2023-03-14T09:10:32;97599.03;;;3.37;100.00
45525;BME280;31437;58.350;13.828;2023-03-14T09:12:57;97596.66;;;3.34;100.00
45525;BME280;31437;58.350;13.828;2023-03-14T09:15:23;97600.59;;;3.39;100.00
45525;BME280;31437;58.350;13.828;2023-03-14T09:17:50;97593.78;;;3.38;100.00
45525;BME280;31437;58.350;13.828;2023-03-14T09:20:15;97585.97;;;3.26;100.00
45525;BME280;31437;58.350;13.828;2023-03-14T09:22:42;97578.38;;;3.10;100.00
45525;BME280;31437;58.350;13.828;2023-03-14T09:25:07;97571.34;;;3.12;100.00
45525;BME280;31437;58.350;13.828;2023-03-14T09:27:32;97572.16;;;3.12;100.00
45525;BME280;31437;58.350;13.828;2023-03-14T09:29:59;97563.56;;;3.12;100.00
45525;BME280;31437;58.350;13.828;2023-03-14T09:32:24;97565.63;;;3.19;100.00
45525;BME280;31437;58.350;13.828;2023-03-14T09:34:51;97567.41;;;3.32;100.00
45525;BME280;31437;58.350;13.828;2023-03-14T09:37:16;97551.38;;;3.27;100.00
45525;BME280;31437;58.350;13.828;2023-03-14T09:39:42;97553.00;;;3.28;100.00
45525;BME280;31437;58.350;13.828;2023-03-14T09:42:07;97537.25;;;3.31;100.00
45525;BME280;31437;58.350;13.828;2023-03-14T09:44:42;97529.28;;;3.34;100.00
45525;BME280;31437;58.350;13.828;2023-03-14T09:47:11;97534.56;;;3.45;100.00
45525;BME280;31437;58.350;13.828;2023-03-14T09:49:42;97534.25;;;3.50;100.00
45525;BME280;31437;58.350;13.828;2023-03-14T09:52:11;97544.84;;;3.72;100.00
45525;BME280;31437;58.350;13.828;2023-03-14T09:54:45;97537.97;;;3.84;100.00
45525;BME280;31437;58.350;13.828;2023-03-14T09:57:13;97519.81;;;3.84;100.00
45525;BME280;31437;58.350;13.828;2023-03-14T09:59:39;97522.59;;;3.94;100.00
45525;BME280;31437;58.350;13.828;2023-03-14T10:02:13;97514.13;;;3.92;100.00
45525;BME280;31437;58.350;13.828;2023-03-14T10:04:39;97509.25;;;3.87;100.00
45525;BME280;31437;58.350;13.828;2023-03-14T10:07:11;97495.97;;;3.79;100.00
45525;BME280;31437;58.350;13.828;2023-03-14T10:09:40;97495.03;;;3.93;100.00
45525;BME280;31437;58.350;13.828;2023-03-14T10:12:07;97485.59;;;3.92;100.00
45525;BME280;31437;58.350;13.828;2023-03-14T10:14:34;97478.94;;;3.87;100.00
45525;BME280;31437;58.350;13.828;2023-03-14T10:17:07;97473.00;;;3.98;100.00
45525;BME280;31437;58.350;13.828;2023-03-14T10:19:33;97476.28;;;4.13;100.00
45525;BME280;31437;58.350;13.828;2023-03-14T10:22:03;97471.41;;;4.08;100.00
45525;BME280;31437;58.350;13.828;2023-03-14T10:24:33;97467.91;;;4.09;100.00
45525;BME280;31437;58.350;13.828;2023-03-14T10:27:05;97464.34;;;4.10;100.00
45525;BME280;31437;58.350;13.828;2023-03-14T10:29:53;97462.94;;;4.06;100.00
45525;BME280;31437;58.350;13.828;2023-03-14T10:32:20;97457.66;;;3.95;100.00
45525;BME280;31437;58.350;13.828;2023-03-14T10:34:46;97453.44;;;3.94;100.00
45525;BME280;31437;58.350;13.828;2023-03-14T10:37:28;97472.41;;;3.82;100.00
45525;BME280;31437;58.350;13.828;2023-03-14T10:39:54;97471.72;;;3.67;100.00
45525;BME280;31437;58.350;13.828;2023-03-14T10:42:27;97465.94;;;3.38;100.00
45525;BME280;31437;58.350;13.828;2023-03-14T10:45:04;97478.91;;;3.25;100.00
45525;BME280;31437;58.350;13.828;2023-03-14T10:47:31;97486.16;;;3.07;100.00
45525;BME280;31437;58.350;13.828;2023-03-14T10:49:57;97493.06;;;2.94;100.00
45525;BME280;31437;58.350;13.828;2023-03-14T10:52:52;97495.94;;;2.77;100.00
45525;BME280;31437;58.350;13.828;2023-03-14T10:55:17;97505.44;;;2.76;100.00
45525;BME280;31437;58.350;13.828;2023-03-14T10:57:43;97515.84;;;2.89;100.00
45525;BME280;31437;58.350;13.828;2023-03-14T11:00:12;97523.75;;;3.00;100.00
45525;BME280;31437;58.350;13.828;2023-03-14T11:07:54;97542.34;;;3.45;100.00
45525;BME280;31437;58.350;13.828;2023-03-14T11:10:24;97553.25;;;3.63;100.00
45525;BME280;31437;58.350;13.828;2023-03-14T11:13:02;97537.19;;;3.71;100.00
45525;BME280;31437;58.350;13.828;2023-03-14T11:15:41;97532.88;;;3.95;100.00
45525;BME280;31437;58.350;13.828;2023-03-14T11:23:22;97525.97;;;3.83;100.00
45525;BME280;31437;58.350;13.828;2023-03-14T11:28:36;97516.50;;;3.95;100.00
45525;BME280;31437;58.350;13.828;2023-03-14T11:33:45;97525.88;;;4.21;100.00
45525;BME280;31437;58.350;13.828;2023-03-14T11:36:11;97507.22;;;4.16;100.00
45525;BME280;31437;58.350;13.828;2023-03-14T11:38:52;97499.13;;;4.08;100.00
45525;BME280;31437;58.350;13.828;2023-03-14T11:43:56;97497.13;;;4.12;100.00
45525;BME280;31437;58.350;13.828;2023-03-14T11:46:27;97499.03;;;3.97;100.00
45525;BME280;31437;58.350;13.828;2023-03-14T11:48:57;97500.22;;;3.93;100.00
45525;BME280;31437;58.350;13.828;2023-03-14T11:51:28;97494.50;;;3.87;100.00
45525;BME280;31437;58.350;13.828;2023-03-14T11:56:25;97513.47;;;4.01;100.00
45525;BME280;31437;58.350;13.828;2023-03-14T11:59:38;97501.97;;;3.79;100.00
45525;BME280;31437;58.350;13.828;2023-03-14T12:01:56;97506.88;;;3.71;100.00
45525;BME280;31437;58.350;13.828;2023-03-14T12:04:34;97506.56;;;3.76;100.00
45525;BME280;31437;58.350;13.828;2023-03-14T12:07:39;97508.31;;;3.75;100.00
45525;BME280;31437;58.350;13.828;2023-03-14T12:09:57;97504.06;;;3.87;100.00
45525;BME280;31437;58.350;13.828;2023-03-14T12:12:23;97502.13;;;3.65;100.00
45525;BME280;31437;58.350;13.828;2023-03-14T12:14:53;97498.88;;;3.61;100.00
45525;BME280;31437;58.350;13.828;2023-03-14T12:17:23;97506.75;;;3.73;100.00
45525;BME280;31437;58.350;13.828;2023-03-14T12:25:17;97514.00;;;4.06;100.00
45525;BME280;31437;58.350;13.828;2023-03-14T12:27:45;97509.63;;;3.94;100.00
45525;BME280;31437;58.350;13.828;2023-03-14T12:30:44;97513.25;;;4.04;100.00
45525;BME280;31437;58.350;13.828;2023-03-14T12:35:37;97486.41;;;3.79;100.00
45525;BME280;31437;58.350;13.828;2023-03-14T12:38:04;97489.34;;;3.75;100.00
45525;BME280;31437;58.350;13.828;2023-03-14T12:40:31;97493.63;;;3.63;100.00
45525;BME280;31437;58.350;13.828;2023-03-14T12:42:58;97494.53;;;3.75;100.00
45525;BME280;31437;58.350;13.828;2023-03-14T12:45:25;97511.41;;;3.93;100.00
45525;BME280;31437;58.350;13.828;2023-03-14T12:48:02;97512.84;;;4.10;100.00
45525;BME280;31437;58.350;13.828;2023-03-14T12:50:32;97512.31;;;4.18;100.00
45525;BME280;31437;58.350;13.828;2023-03-14T12:55:35;97494.16;;;4.05;100.00
45525;BME280;31437;58.350;13.828;2023-03-14T12:58:08;97495.03;;;3.93;100.00
45525;BME280;31437;58.350;13.828;2023-03-14T13:00:51;97491.69;;;4.03;100.00
45525;BME280;31437;58.350;13.828;2023-03-14T13:03:20;97515.06;;;4.27;100.00
45525;BME280;31437;58.350;13.828;2023-03-14T13:05:54;97518.88;;;4.35;100.00
45525;BME280;31437;58.350;13.828;2023-03-14T13:08:41;97497.88;;;4.14;100.00
45525;BME280;31437;58.350;13.828;2023-03-14T13:11:23;97504.84;;;4.13;100.00
45525;BME280;31437;58.350;13.828;2023-03-14T13:13:52;97496.31;;;4.11;100.00
45525;BME280;31437;58.350;13.828;2023-03-14T13:16:23;97498.78;;;3.89;100.00
45525;BME280;31437;58.350;13.828;2023-03-14T13:18:49;97494.75;;;3.72;100.00
45525;BME280;31437;58.350;13.828;2023-03-14T13:21:21;97509.38;;;3.60;100.00
45525;BME280;31437;58.350;13.828;2023-03-14T13:24:17;97515.91;;;3.53;100.00
45525;BME280;31437;58.350;13.828;2023-03-14T13:26:45;97523.38;;;3.57;100.00
45525;BME280;31437;58.350;13.828;2023-03-14T13:31:45;97529.00;;;3.38;100.00
45525;BME280;31437;58.350;13.828;2023-03-14T13:34:11;97535.50;;;3.44;100.00
45525;BME280;31437;58.350;13.828;2023-03-14T13:36:36;97532.56;;;3.23;100.00
45525;BME280;31437;58.350;13.828;2023-03-14T13:39:04;97542.22;;;3.21;100.00
45525;BME280;31437;58.350;13.828;2023-03-14T13:41:33;97552.69;;;3.19;100.00
45525;BME280;31437;58.350;13.828;2023-03-14T13:44:36;97554.13;;;3.11;100.00
45525;BME280;31437;58.350;13.828;2023-03-14T13:47:10;97566.25;;;3.10;100.00
45525;BME280;31437;58.350;13.828;2023-03-14T13:49:37;97572.63;;;2.92;100.00
45525;BME280;31437;58.350;13.828;2023-03-14T13:52:03;97576.72;;;2.82;100.00
45525;BME280;31437;58.350;13.828;2023-03-14T13:54:30;97582.47;;;2.45;100.00
45525;BME280;31437;58.350;13.828;2023-03-14T13:57:00;97593.00;;;2.42;100.00
45525;BME280;31437;58.350;13.828;2023-03-14T13:59:28;97595.25;;;2.34;100.00
45525;BME280;31437;58.350;13.828;2023-03-14T14:01:57;97617.31;;;2.40;100.00